KOMA/OMA METAR and TAF weather

Enter ICAO airport designator
Station Type Date Time Source
KOMA METAR 2020/08/10 18:52 UTC NOAA

KOMA 101852Z 15015KT 10SM SCT110 SCT250 27/15 A2995 RMK AO2 SLP133 T02720150


Station Type Date Time Source
KOMA Decoded METAR 2020/08/10 18:52 UTC NOAA

OMAHA EPPLEY AIRFIELD, NE, United States (KOMA) 41-18N 095-54W 312M
Aug 10, 2020 - 02:52 PM EDT / 2020.08.10 1852 UTC
Wind: from the SSE (150 degrees) at 17 MPH (15 KT):0
Visibility: 10 mile(s):0
Sky conditions: partly cloudy
Temperature: 81.0 F (27.2 C)
Dew Point: 59.0 F (15.0 C)
Relative Humidity: 47%
Pressure (altimeter): 29.95 in. Hg (1014 hPa)
ob: KOMA 101852Z 15015KT 10SM SCT110 SCT250 27/15 A2995 RMK AO2 SLP133 T02720150
cycle: 19

Station Type Date Time Source
KOMA TAF 2020/08/10 18:22 UTC NOAA

TAF KOMA 101720Z 1018/1118 36014KT P6SM SCT250
FM102300 03007KT P6SM SCT200
FM110400 VRB03KT P6SM SCT200

Example: see airport list